sensor_id;sensor_type;location;lat;lon;timestamp;P1;durP1;ratioP1;P2;durP2;ratioP2
40737;SDS011;54759;48.094;-1.628;2022-12-07T00:00:40;7.63;;;7.03;;
40737;SDS011;54759;48.094;-1.628;2022-12-07T00:03:42;8.27;;;7.68;;
40737;SDS011;54759;48.094;-1.628;2022-12-07T00:06:47;7.65;;;7.10;;
40737;SDS011;54759;48.094;-1.628;2022-12-07T00:09:52;6.70;;;6.20;;
40737;SDS011;54759;48.094;-1.628;2022-12-07T00:12:53;5.93;;;5.50;;
40737;SDS011;54759;48.094;-1.628;2022-12-07T00:15:55;4.70;;;4.40;;
40737;SDS011;54759;48.094;-1.628;2022-12-07T00:18:57;4.50;;;4.13;;
40737;SDS011;54759;48.094;-1.628;2022-12-07T00:21:59;3.58;;;3.28;;
40737;SDS011;54759;48.094;-1.628;2022-12-07T00:25:01;3.67;;;3.25;;
40737;SDS011;54759;48.094;-1.628;2022-12-07T00:28:02;2.83;;;2.63;;
40737;SDS011;54759;48.094;-1.628;2022-12-07T00:31:05;2.63;;;2.42;;
40737;SDS011;54759;48.094;-1.628;2022-12-07T00:34:11;3.13;;;2.83;;
40737;SDS011;54759;48.094;-1.628;2022-12-07T00:37:14;3.10;;;2.78;;
40737;SDS011;54759;48.094;-1.628;2022-12-07T00:40:16;3.28;;;2.97;;
40737;SDS011;54759;48.094;-1.628;2022-12-07T00:46:19;3.95;;;3.55;;
40737;SDS011;54759;48.094;-1.628;2022-12-07T00:49:21;4.13;;;3.72;;
40737;SDS011;54759;48.094;-1.628;2022-12-07T00:52:23;3.03;;;2.72;;
40737;SDS011;54759;48.094;-1.628;2022-12-07T00:55:24;2.95;;;2.65;;
40737;SDS011;54759;48.094;-1.628;2022-12-07T00:58:26;2.78;;;2.47;;
40737;SDS011;54759;48.094;-1.628;2022-12-07T01:01:28;3.05;;;2.53;;
40737;SDS011;54759;48.094;-1.628;2022-12-07T01:04:33;3.08;;;2.45;;
40737;SDS011;54759;48.094;-1.628;2022-12-07T01:07:35;2.55;;;2.30;;
40737;SDS011;54759;48.094;-1.628;2022-12-07T01:10:37;2.10;;;1.90;;
40737;SDS011;54759;48.094;-1.628;2022-12-07T01:13:38;1.98;;;1.80;;
40737;SDS011;54759;48.094;-1.628;2022-12-07T01:16:39;1.80;;;1.50;;
40737;SDS011;54759;48.094;-1.628;2022-12-07T01:19:41;2.15;;;1.95;;
40737;SDS011;54759;48.094;-1.628;2022-12-07T01:25:45;2.05;;;1.60;;
40737;SDS011;54759;48.094;-1.628;2022-12-07T01:28:54;2.00;;;1.80;;
40737;SDS011;54759;48.094;-1.628;2022-12-07T01:31:56;2.05;;;1.65;;
40737;SDS011;54759;48.094;-1.628;2022-12-07T01:34:57;2.85;;;2.10;;
40737;SDS011;54759;48.094;-1.628;2022-12-07T01:37:59;1.83;;;1.52;;
40737;SDS011;54759;48.094;-1.628;2022-12-07T01:41:01;2.08;;;1.88;;
40737;SDS011;54759;48.094;-1.628;2022-12-07T01:44:08;1.95;;;1.70;;
40737;SDS011;54759;48.094;-1.628;2022-12-07T01:47:13;2.13;;;1.65;;
40737;SDS011;54759;48.094;-1.628;2022-12-07T01:50:14;1.70;;;1.60;;
40737;SDS011;54759;48.094;-1.628;2022-12-07T01:56:19;2.08;;;1.88;;
40737;SDS011;54759;48.094;-1.628;2022-12-07T01:59:23;1.88;;;1.55;;
40737;SDS011;54759;48.094;-1.628;2022-12-07T02:02:27;2.13;;;1.80;;
40737;SDS011;54759;48.094;-1.628;2022-12-07T02:05:32;1.88;;;1.40;;
40737;SDS011;54759;48.094;-1.628;2022-12-07T02:08:36;2.00;;;1.80;;
40737;SDS011;54759;48.094;-1.628;2022-12-07T02:11:38;2.35;;;1.90;;
40737;SDS011;54759;48.094;-1.628;2022-12-07T02:14:41;1.83;;;1.65;;
40737;SDS011;54759;48.094;-1.628;2022-12-07T02:20:48;2.10;;;1.85;;
40737;SDS011;54759;48.094;-1.628;2022-12-07T02:27:28;1.73;;;1.60;;
40737;SDS011;54759;48.094;-1.628;2022-12-07T02:30:40;1.85;;;1.60;;
40737;SDS011;54759;48.094;-1.628;2022-12-07T02:33:46;2.20;;;1.80;;
40737;SDS011;54759;48.094;-1.628;2022-12-07T02:36:54;2.28;;;1.75;;
40737;SDS011;54759;48.094;-1.628;2022-12-07T02:40:02;2.17;;;1.65;;
40737;SDS011;54759;48.094;-1.628;2022-12-07T02:43:07;2.20;;;1.88;;
40737;SDS011;54759;48.094;-1.628;2022-12-07T02:46:14;2.05;;;1.85;;
40737;SDS011;54759;48.094;-1.628;2022-12-07T02:49:19;1.92;;;1.70;;
40737;SDS011;54759;48.094;-1.628;2022-12-07T02:52:23;2.05;;;1.83;;
40737;SDS011;54759;48.094;-1.628;2022-12-07T02:55:26;2.13;;;1.88;;
40737;SDS011;54759;48.094;-1.628;2022-12-07T02:58:43;1.83;;;1.70;;
40737;SDS011;54759;48.094;-1.628;2022-12-07T03:01:59;1.77;;;1.52;;
40737;SDS011;54759;48.094;-1.628;2022-12-07T03:05:17;1.67;;;1.58;;
40737;SDS011;54759;48.094;-1.628;2022-12-07T03:08:30;2.13;;;1.90;;
40737;SDS011;54759;48.094;-1.628;2022-12-07T03:11:39;2.50;;;2.00;;
40737;SDS011;54759;48.094;-1.628;2022-12-07T03:14:47;2.67;;;2.30;;
40737;SDS011;54759;48.094;-1.628;2022-12-07T03:17:54;2.03;;;1.75;;
40737;SDS011;54759;48.094;-1.628;2022-12-07T03:21:00;2.05;;;1.67;;
40737;SDS011;54759;48.094;-1.628;2022-12-07T03:24:06;1.67;;;1.58;;
40737;SDS011;54759;48.094;-1.628;2022-12-07T03:27:13;2.20;;;2.00;;
40737;SDS011;54759;48.094;-1.628;2022-12-07T03:30:18;2.03;;;1.80;;
40737;SDS011;54759;48.094;-1.628;2022-12-07T03:33:22;2.25;;;1.90;;
40737;SDS011;54759;48.094;-1.628;2022-12-07T03:36:28;1.85;;;1.60;;
40737;SDS011;54759;48.094;-1.628;2022-12-07T03:39:37;2.10;;;1.90;;
40737;SDS011;54759;48.094;-1.628;2022-12-07T03:42:41;2.10;;;1.90;;
40737;SDS011;54759;48.094;-1.628;2022-12-07T03:45:44;1.90;;;1.52;;
40737;SDS011;54759;48.094;-1.628;2022-12-07T03:48:53;1.70;;;1.60;;
40737;SDS011;54759;48.094;-1.628;2022-12-07T03:52:00;2.30;;;1.75;;
40737;SDS011;54759;48.094;-1.628;2022-12-07T03:55:11;1.70;;;1.45;;
40737;SDS011;54759;48.094;-1.628;2022-12-07T03:58:19;2.05;;;1.80;;
40737;SDS011;54759;48.094;-1.628;2022-12-07T04:01:23;1.90;;;1.70;;
40737;SDS011;54759;48.094;-1.628;2022-12-07T04:04:25;2.20;;;2.00;;
40737;SDS011;54759;48.094;-1.628;2022-12-07T04:07:26;2.03;;;1.75;;
40737;SDS011;54759;48.094;-1.628;2022-12-07T04:10:29;2.05;;;1.85;;
40737;SDS011;54759;48.094;-1.628;2022-12-07T04:13:30;2.05;;;1.85;;
40737;SDS011;54759;48.094;-1.628;2022-12-07T04:16:54;2.28;;;1.85;;
40737;SDS011;54759;48.094;-1.628;2022-12-07T04:19:57;1.67;;;1.55;;
40737;SDS011;54759;48.094;-1.628;2022-12-07T04:22:59;2.35;;;2.00;;
40737;SDS011;54759;48.094;-1.628;2022-12-07T04:29:02;2.95;;;2.03;;
40737;SDS011;54759;48.094;-1.628;2022-12-07T04:32:08;2.38;;;1.98;;
40737;SDS011;54759;48.094;-1.628;2022-12-07T04:35:10;1.80;;;1.55;;
40737;SDS011;54759;48.094;-1.628;2022-12-07T04:38:11;3.38;;;1.95;;
40737;SDS011;54759;48.094;-1.628;2022-12-07T04:41:12;1.85;;;1.65;;
40737;SDS011;54759;48.094;-1.628;2022-12-07T04:44:14;2.13;;;1.63;;
40737;SDS011;54759;48.094;-1.628;2022-12-07T04:47:16;1.95;;;1.63;;
40737;SDS011;54759;48.094;-1.628;2022-12-07T04:50:18;1.92;;;1.70;;
40737;SDS011;54759;48.094;-1.628;2022-12-07T04:53:20;2.40;;;1.52;;
40737;SDS011;54759;48.094;-1.628;2022-12-07T04:59:23;1.63;;;1.30;;
40737;SDS011;54759;48.094;-1.628;2022-12-07T05:02:25;2.97;;;1.70;;
40737;SDS011;54759;48.094;-1.628;2022-12-07T05:08:28;1.85;;;1.55;;
40737;SDS011;54759;48.094;-1.628;2022-12-07T05:11:29;2.78;;;1.70;;
40737;SDS011;54759;48.094;-1.628;2022-12-07T05:14:45;1.95;;;1.63;;
40737;SDS011;54759;48.094;-1.628;2022-12-07T05:20:49;1.77;;;1.40;;
40737;SDS011;54759;48.094;-1.628;2022-12-07T05:23:51;1.77;;;1.58;;
40737;SDS011;54759;48.094;-1.628;2022-12-07T05:26:53;1.80;;;1.60;;
40737;SDS011;54759;48.094;-1.628;2022-12-07T05:29:54;1.73;;;1.52;;
40737;SDS011;54759;48.094;-1.628;2022-12-07T05:32:55;1.50;;;1.20;;
40737;SDS011;54759;48.094;-1.628;2022-12-07T05:38:59;1.70;;;1.40;;
40737;SDS011;54759;48.094;-1.628;2022-12-07T05:42:00;1.70;;;1.40;;
40737;SDS011;54759;48.094;-1.628;2022-12-07T05:45:17;1.63;;;1.48;;
40737;SDS011;54759;48.094;-1.628;2022-12-07T05:48:18;1.88;;;1.50;;
40737;SDS011;54759;48.094;-1.628;2022-12-07T05:51:20;1.50;;;1.40;;
40737;SDS011;54759;48.094;-1.628;2022-12-07T05:54:22;1.85;;;1.55;;
40737;SDS011;54759;48.094;-1.628;2022-12-07T06:00:25;1.60;;;1.50;;
40737;SDS011;54759;48.094;-1.628;2022-12-07T06:03:26;1.88;;;1.33;;
40737;SDS011;54759;48.094;-1.628;2022-12-07T06:06:28;2.42;;;1.67;;
40737;SDS011;54759;48.094;-1.628;2022-12-07T06:09:29;1.73;;;1.63;;
40737;SDS011;54759;48.094;-1.628;2022-12-07T06:15:35;2.00;;;1.50;;
40737;SDS011;54759;48.094;-1.628;2022-12-07T06:18:37;1.70;;;1.42;;
40737;SDS011;54759;48.094;-1.628;2022-12-07T06:21:39;2.10;;;1.55;;
40737;SDS011;54759;48.094;-1.628;2022-12-07T06:24:40;1.73;;;1.60;;
40737;SDS011;54759;48.094;-1.628;2022-12-07T06:30:43;2.03;;;1.55;;
40737;SDS011;54759;48.094;-1.628;2022-12-07T06:33:45;1.70;;;1.38;;
40737;SDS011;54759;48.094;-1.628;2022-12-07T06:36:47;1.63;;;1.45;;
40737;SDS011;54759;48.094;-1.628;2022-12-07T06:39:51;1.70;;;1.58;;
40737;SDS011;54759;48.094;-1.628;2022-12-07T06:42:53;1.98;;;1.67;;
40737;SDS011;54759;48.094;-1.628;2022-12-07T06:45:54;1.65;;;1.40;;
40737;SDS011;54759;48.094;-1.628;2022-12-07T06:48:56;1.67;;;1.42;;
40737;SDS011;54759;48.094;-1.628;2022-12-07T06:51:58;1.50;;;1.30;;
40737;SDS011;54759;48.094;-1.628;2022-12-07T06:55:00;1.50;;;1.40;;
40737;SDS011;54759;48.094;-1.628;2022-12-07T07:01:07;1.52;;;1.23;;
40737;SDS011;54759;48.094;-1.628;2022-12-07T07:04:09;1.60;;;1.30;;
40737;SDS011;54759;48.094;-1.628;2022-12-07T07:07:11;1.20;;;1.00;;
40737;SDS011;54759;48.094;-1.628;2022-12-07T07:10:13;1.00;;;0.70;;
40737;SDS011;54759;48.094;-1.628;2022-12-07T07:13:14;2.80;;;0.93;;
40737;SDS011;54759;48.094;-1.628;2022-12-07T07:19:18;1.70;;;1.10;;
40737;SDS011;54759;48.094;-1.628;2022-12-07T07:25:21;0.93;;;0.70;;
40737;SDS011;54759;48.094;-1.628;2022-12-07T07:28:23;1.70;;;1.00;;
40737;SDS011;54759;48.094;-1.628;2022-12-07T07:34:26;8.93;;;1.60;;
40737;SDS011;54759;48.094;-1.628;2022-12-07T07:37:28;1.25;;;0.85;;
40737;SDS011;54759;48.094;-1.628;2022-12-07T07:40:29;0.90;;;0.75;;
40737;SDS011;54759;48.094;-1.628;2022-12-07T07:49:35;0.93;;;0.75;;
40737;SDS011;54759;48.094;-1.628;2022-12-07T07:58:40;1.23;;;1.13;;
40737;SDS011;54759;48.094;-1.628;2022-12-07T08:01:41;1.98;;;0.90;;
40737;SDS011;54759;48.094;-1.628;2022-12-07T08:04:43;0.77;;;0.73;;
40737;SDS011;54759;48.094;-1.628;2022-12-07T08:07:45;0.80;;;0.65;;
40737;SDS011;54759;48.094;-1.628;2022-12-07T08:10:47;2.58;;;1.10;;
40737;SDS011;54759;48.094;-1.628;2022-12-07T08:13:48;1.90;;;1.15;;
40737;SDS011;54759;48.094;-1.628;2022-12-07T08:16:50;3.45;;;1.00;;
40737;SDS011;54759;48.094;-1.628;2022-12-07T08:22:58;1.83;;;1.00;;
40737;SDS011;54759;48.094;-1.628;2022-12-07T08:25:59;1.15;;;0.93;;
40737;SDS011;54759;48.094;-1.628;2022-12-07T08:32:32;1.17;;;0.90;;
40737;SDS011;54759;48.094;-1.628;2022-12-07T08:35:39;0.93;;;0.90;;
40737;SDS011;54759;48.094;-1.628;2022-12-07T08:38:42;2.40;;;1.45;;
40737;SDS011;54759;48.094;-1.628;2022-12-07T08:42:04;1.00;;;0.90;;
40737;SDS011;54759;48.094;-1.628;2022-12-07T08:45:06;2.33;;;0.93;;
40737;SDS011;54759;48.094;-1.628;2022-12-07T08:48:10;1.40;;;1.20;;
40737;SDS011;54759;48.094;-1.628;2022-12-07T08:51:14;1.90;;;1.15;;
40737;SDS011;54759;48.094;-1.628;2022-12-07T08:54:17;1.77;;;1.10;;
40737;SDS011;54759;48.094;-1.628;2022-12-07T08:57:19;2.50;;;1.75;;
40737;SDS011;54759;48.094;-1.628;2022-12-07T09:00:22;2.78;;;1.92;;
40737;SDS011;54759;48.094;-1.628;2022-12-07T09:03:24;1.73;;;1.50;;
40737;SDS011;54759;48.094;-1.628;2022-12-07T09:06:26;4.35;;;1.40;;
40737;SDS011;54759;48.094;-1.628;2022-12-07T09:09:29;2.10;;;1.33;;
40737;SDS011;54759;48.094;-1.628;2022-12-07T09:12:31;1.20;;;1.10;;
40737;SDS011;54759;48.094;-1.628;2022-12-07T09:15:32;1.27;;;1.13;;
40737;SDS011;54759;48.094;-1.628;2022-12-07T09:18:34;2.20;;;1.00;;
40737;SDS011;54759;48.094;-1.628;2022-12-07T09:21:36;1.67;;;1.15;;
40737;SDS011;54759;48.094;-1.628;2022-12-07T09:30:45;1.42;;;1.00;;
40737;SDS011;54759;48.094;-1.628;2022-12-07T09:34:06;1.05;;;0.90;;
40737;SDS011;54759;48.094;-1.628;2022-12-07T09:40:10;1.25;;;0.90;;
40737;SDS011;54759;48.094;-1.628;2022-12-07T09:43:12;1.30;;;1.10;;
40737;SDS011;54759;48.094;-1.628;2022-12-07T09:46:17;1.75;;;1.00;;
40737;SDS011;54759;48.094;-1.628;2022-12-07T09:49:21;1.60;;;1.20;;
40737;SDS011;54759;48.094;-1.628;2022-12-07T09:52:25;1.42;;;1.33;;
40737;SDS011;54759;48.094;-1.628;2022-12-07T09:55:33;1.48;;;1.13;;
40737;SDS011;54759;48.094;-1.628;2022-12-07T09:58:37;1.52;;;1.23;;
40737;SDS011;54759;48.094;-1.628;2022-12-07T10:01:39;1.27;;;1.15;;
40737;SDS011;54759;48.094;-1.628;2022-12-07T10:04:41;1.13;;;1.00;;
40737;SDS011;54759;48.094;-1.628;2022-12-07T10:07:45;1.10;;;1.00;;
40737;SDS011;54759;48.094;-1.628;2022-12-07T10:13:52;1.10;;;1.00;;
40737;SDS011;54759;48.094;-1.628;2022-12-07T10:16:54;1.23;;;1.10;;
40737;SDS011;54759;48.094;-1.628;2022-12-07T10:23:18;1.17;;;1.05;;
40737;SDS011;54759;48.094;-1.628;2022-12-07T10:26:25;1.05;;;0.90;;
40737;SDS011;54759;48.094;-1.628;2022-12-07T10:29:30;1.38;;;0.93;;
40737;SDS011;54759;48.094;-1.628;2022-12-07T10:32:34;1.10;;;1.00;;
40737;SDS011;54759;48.094;-1.628;2022-12-07T10:35:38;2.92;;;0.80;;
40737;SDS011;54759;48.094;-1.628;2022-12-07T10:38:44;1.00;;;0.90;;
40737;SDS011;54759;48.094;-1.628;2022-12-07T10:41:55;0.80;;;0.80;;
40737;SDS011;54759;48.094;-1.628;2022-12-07T10:45:07;0.53;;;0.50;;
40737;SDS011;54759;48.094;-1.628;2022-12-07T10:48:17;1.10;;;0.80;;
40737;SDS011;54759;48.094;-1.628;2022-12-07T10:51:27;0.88;;;0.80;;
40737;SDS011;54759;48.094;-1.628;2022-12-07T10:54:41;0.90;;;0.70;;
40737;SDS011;54759;48.094;-1.628;2022-12-07T11:01:23;0.80;;;0.80;;
40737;SDS011;54759;48.094;-1.628;2022-12-07T11:04:30;1.13;;;0.85;;
40737;SDS011;54759;48.094;-1.628;2022-12-07T11:07:39;1.75;;;0.68;;
40737;SDS011;54759;48.094;-1.628;2022-12-07T11:10:55;1.10;;;1.00;;
40737;SDS011;54759;48.094;-1.628;2022-12-07T11:14:12;0.88;;;0.70;;
40737;SDS011;54759;48.094;-1.628;2022-12-07T11:17:21;1.05;;;0.70;;
40737;SDS011;54759;48.094;-1.628;2022-12-07T11:20:37;2.03;;;0.80;;
40737;SDS011;54759;48.094;-1.628;2022-12-07T11:23:47;0.98;;;0.75;;
40737;SDS011;54759;48.094;-1.628;2022-12-07T11:26:57;0.90;;;0.77;;
40737;SDS011;54759;48.094;-1.628;2022-12-07T11:30:10;1.10;;;0.93;;
40737;SDS011;54759;48.094;-1.628;2022-12-07T11:33:17;1.27;;;0.98;;
40737;SDS011;54759;48.094;-1.628;2022-12-07T11:36:31;1.33;;;1.05;;
40737;SDS011;54759;48.094;-1.628;2022-12-07T11:39:39;2.10;;;1.73;;
40737;SDS011;54759;48.094;-1.628;2022-12-07T11:42:49;1.75;;;1.60;;
40737;SDS011;54759;48.094;-1.628;2022-12-07T11:45:55;2.50;;;2.10;;
40737;SDS011;54759;48.094;-1.628;2022-12-07T11:49:03;2.90;;;2.20;;
40737;SDS011;54759;48.094;-1.628;2022-12-07T11:52:16;2.50;;;2.00;;
40737;SDS011;54759;48.094;-1.628;2022-12-07T11:55:24;2.50;;;2.30;;
40737;SDS011;54759;48.094;-1.628;2022-12-07T11:58:41;2.72;;;2.20;;
40737;SDS011;54759;48.094;-1.628;2022-12-07T12:01:50;1.83;;;1.65;;
40737;SDS011;54759;48.094;-1.628;2022-12-07T12:04:58;2.15;;;1.83;;
40737;SDS011;54759;48.094;-1.628;2022-12-07T12:08:12;1.95;;;1.70;;
40737;SDS011;54759;48.094;-1.628;2022-12-07T12:11:44;1.73;;;1.45;;
40737;SDS011;54759;48.094;-1.628;2022-12-07T12:15:20;1.40;;;1.30;;
40737;SDS011;54759;48.094;-1.628;2022-12-07T12:18:33;1.50;;;1.25;;
40737;SDS011;54759;48.094;-1.628;2022-12-07T12:21:54;1.60;;;1.40;;
40737;SDS011;54759;48.094;-1.628;2022-12-07T12:25:02;1.23;;;1.13;;
40737;SDS011;54759;48.094;-1.628;2022-12-07T12:28:16;1.40;;;1.27;;
40737;SDS011;54759;48.094;-1.628;2022-12-07T12:34:40;1.00;;;0.90;;
40737;SDS011;54759;48.094;-1.628;2022-12-07T12:45:18;1.20;;;1.10;;
40737;SDS011;54759;48.094;-1.628;2022-12-07T12:48:29;1.27;;;1.10;;
40737;SDS011;54759;48.094;-1.628;2022-12-07T12:51:36;1.45;;;1.20;;
40737;SDS011;54759;48.094;-1.628;2022-12-07T12:54:54;1.48;;;1.20;;
40737;SDS011;54759;48.094;-1.628;2022-12-07T13:01:40;1.33;;;1.20;;
40737;SDS011;54759;48.094;-1.628;2022-12-07T13:07:56;1.42;;;1.23;;
40737;SDS011;54759;48.094;-1.628;2022-12-07T13:11:15;2.30;;;1.23;;
40737;SDS011;54759;48.094;-1.628;2022-12-07T13:24:37;2.05;;;0.95;;
40737;SDS011;54759;48.094;-1.628;2022-12-07T13:27:40;1.40;;;1.10;;
40737;SDS011;54759;48.094;-1.628;2022-12-07T13:34:02;4.40;;;1.15;;
40737;SDS011;54759;48.094;-1.628;2022-12-07T13:37:09;1.52;;;1.20;;
40737;SDS011;54759;48.094;-1.628;2022-12-07T13:40:17;2.65;;;1.00;;
40737;SDS011;54759;48.094;-1.628;2022-12-07T13:43:20;1.58;;;1.40;;
40737;SDS011;54759;48.094;-1.628;2022-12-07T13:46:24;1.40;;;1.20;;
40737;SDS011;54759;48.094;-1.628;2022-12-07T13:49:32;1.65;;;1.17;;
40737;SDS011;54759;48.094;-1.628;2022-12-07T13:56:15;1.35;;;1.20;;
40737;SDS011;54759;48.094;-1.628;2022-12-07T13:59:17;3.47;;;1.05;;
40737;SDS011;54759;48.094;-1.628;2022-12-07T14:02:21;1.90;;;1.40;;
40737;SDS011;54759;48.094;-1.628;2022-12-07T14:05:26;1.40;;;1.23;;
40737;SDS011;54759;48.094;-1.628;2022-12-07T14:08:29;1.67;;;1.13;;
40737;SDS011;54759;48.094;-1.628;2022-12-07T14:14:56;1.50;;;1.30;;
40737;SDS011;54759;48.094;-1.628;2022-12-07T14:18:01;1.40;;;1.20;;
40737;SDS011;54759;48.094;-1.628;2022-12-07T14:21:05;1.55;;;1.30;;
40737;SDS011;54759;48.094;-1.628;2022-12-07T14:24:16;1.58;;;1.45;;
40737;SDS011;54759;48.094;-1.628;2022-12-07T14:27:19;1.63;;;1.27;;
40737;SDS011;54759;48.094;-1.628;2022-12-07T14:30:23;1.48;;;1.38;;
40737;SDS011;54759;48.094;-1.628;2022-12-07T14:33:26;1.80;;;1.50;;
40737;SDS011;54759;48.094;-1.628;2022-12-07T14:36:28;1.90;;;1.58;;
40737;SDS011;54759;48.094;-1.628;2022-12-07T14:49:35;2.53;;;1.60;;
40737;SDS011;54759;48.094;-1.628;2022-12-07T14:52:36;1.60;;;1.40;;
40737;SDS011;54759;48.094;-1.628;2022-12-07T14:55:59;1.90;;;1.38;;
40737;SDS011;54759;48.094;-1.628;2022-12-07T14:59:01;1.67;;;1.50;;
40737;SDS011;54759;48.094;-1.628;2022-12-07T15:05:25;1.58;;;1.35;;
40737;SDS011;54759;48.094;-1.628;2022-12-07T15:08:27;1.25;;;1.08;;
40737;SDS011;54759;48.094;-1.628;2022-12-07T15:11:28;1.50;;;1.30;;
40737;SDS011;54759;48.094;-1.628;2022-12-07T15:14:31;1.50;;;1.30;;
40737;SDS011;54759;48.094;-1.628;2022-12-07T15:17:34;1.67;;;1.40;;
40737;SDS011;54759;48.094;-1.628;2022-12-07T15:20:36;1.50;;;1.40;;
40737;SDS011;54759;48.094;-1.628;2022-12-07T15:23:38;1.60;;;1.40;;
40737;SDS011;54759;48.094;-1.628;2022-12-07T15:26:41;1.70;;;1.23;;
40737;SDS011;54759;48.094;-1.628;2022-12-07T15:29:42;1.63;;;1.38;;
40737;SDS011;54759;48.094;-1.628;2022-12-07T15:35:49;1.77;;;1.30;;
40737;SDS011;54759;48.094;-1.628;2022-12-07T15:38:51;1.45;;;1.35;;
40737;SDS011;54759;48.094;-1.628;2022-12-07T15:42:14;1.65;;;1.38;;
40737;SDS011;54759;48.094;-1.628;2022-12-07T15:48:23;1.67;;;1.50;;
40737;SDS011;54759;48.094;-1.628;2022-12-07T15:51:30;2.55;;;1.70;;
40737;SDS011;54759;48.094;-1.628;2022-12-07T15:58:02;1.38;;;1.23;;
40737;SDS011;54759;48.094;-1.628;2022-12-07T16:01:10;1.70;;;1.58;;
40737;SDS011;54759;48.094;-1.628;2022-12-07T16:04:11;1.75;;;1.40;;
40737;SDS011;54759;48.094;-1.628;2022-12-07T16:07:14;1.95;;;1.65;;
40737;SDS011;54759;48.094;-1.628;2022-12-07T16:10:16;1.83;;;1.55;;
40737;SDS011;54759;48.094;-1.628;2022-12-07T16:13:18;2.67;;;2.33;;
40737;SDS011;54759;48.094;-1.628;2022-12-07T16:16:20;3.28;;;2.72;;
40737;SDS011;54759;48.094;-1.628;2022-12-07T16:19:22;2.50;;;2.05;;
40737;SDS011;54759;48.094;-1.628;2022-12-07T16:22:25;3.25;;;2.22;;
40737;SDS011;54759;48.094;-1.628;2022-12-07T16:25:26;2.92;;;2.30;;
40737;SDS011;54759;48.094;-1.628;2022-12-07T16:28:28;2.75;;;2.08;;
40737;SDS011;54759;48.094;-1.628;2022-12-07T16:31:29;2.60;;;2.10;;
40737;SDS011;54759;48.094;-1.628;2022-12-07T16:34:32;2.75;;;2.42;;
40737;SDS011;54759;48.094;-1.628;2022-12-07T16:43:37;4.20;;;2.00;;
40737;SDS011;54759;48.094;-1.628;2022-12-07T16:46:39;1.83;;;1.60;;
40737;SDS011;54759;48.094;-1.628;2022-12-07T17:00:10;2.75;;;1.50;;
40737;SDS011;54759;48.094;-1.628;2022-12-07T17:03:12;2.17;;;1.98;;
40737;SDS011;54759;48.094;-1.628;2022-12-07T17:06:21;2.28;;;1.98;;
40737;SDS011;54759;48.094;-1.628;2022-12-07T17:09:24;2.50;;;1.67;;
40737;SDS011;54759;48.094;-1.628;2022-12-07T17:15:28;2.35;;;2.15;;
40737;SDS011;54759;48.094;-1.628;2022-12-07T17:18:31;1.98;;;1.70;;
40737;SDS011;54759;48.094;-1.628;2022-12-07T17:21:34;2.00;;;1.50;;
40737;SDS011;54759;48.094;-1.628;2022-12-07T17:27:37;1.55;;;1.33;;
40737;SDS011;54759;48.094;-1.628;2022-12-07T17:30:39;2.47;;;2.05;;
40737;SDS011;54759;48.094;-1.628;2022-12-07T17:33:41;2.38;;;2.17;;
40737;SDS011;54759;48.094;-1.628;2022-12-07T17:36:42;2.38;;;2.17;;
40737;SDS011;54759;48.094;-1.628;2022-12-07T17:39:45;2.90;;;2.60;;
40737;SDS011;54759;48.094;-1.628;2022-12-07T17:42:46;3.67;;;2.55;;
40737;SDS011;54759;48.094;-1.628;2022-12-07T17:45:51;2.60;;;2.17;;
40737;SDS011;54759;48.094;-1.628;2022-12-07T17:48:53;2.42;;;2.17;;
40737;SDS011;54759;48.094;-1.628;2022-12-07T17:51:54;2.15;;;1.95;;
40737;SDS011;54759;48.094;-1.628;2022-12-07T17:55:08;2.20;;;2.00;;
40737;SDS011;54759;48.094;-1.628;2022-12-07T17:58:09;2.72;;;2.17;;
40737;SDS011;54759;48.094;-1.628;2022-12-07T18:01:13;2.97;;;2.42;;
40737;SDS011;54759;48.094;-1.628;2022-12-07T18:04:14;3.15;;;2.30;;
40737;SDS011;54759;48.094;-1.628;2022-12-07T18:07:16;2.53;;;2.13;;
40737;SDS011;54759;48.094;-1.628;2022-12-07T18:10:17;2.78;;;2.10;;
40737;SDS011;54759;48.094;-1.628;2022-12-07T18:13:19;2.90;;;2.45;;
40737;SDS011;54759;48.094;-1.628;2022-12-07T18:16:36;2.47;;;2.17;;
40737;SDS011;54759;48.094;-1.628;2022-12-07T18:19:37;2.75;;;2.30;;
40737;SDS011;54759;48.094;-1.628;2022-12-07T18:25:40;2.92;;;1.92;;
40737;SDS011;54759;48.094;-1.628;2022-12-07T18:28:47;1.92;;;1.73;;
40737;SDS011;54759;48.094;-1.628;2022-12-07T18:34:51;2.15;;;1.70;;
40737;SDS011;54759;48.094;-1.628;2022-12-07T18:37:54;2.55;;;2.10;;
40737;SDS011;54759;48.094;-1.628;2022-12-07T18:40:55;4.45;;;2.05;;
40737;SDS011;54759;48.094;-1.628;2022-12-07T18:46:59;2.05;;;1.85;;
40737;SDS011;54759;48.094;-1.628;2022-12-07T18:50:01;2.95;;;2.08;;
40737;SDS011;54759;48.094;-1.628;2022-12-07T18:53:03;2.50;;;2.28;;
40737;SDS011;54759;48.094;-1.628;2022-12-07T18:56:06;2.22;;;2.03;;
40737;SDS011;54759;48.094;-1.628;2022-12-07T18:59:10;2.92;;;2.30;;
40737;SDS011;54759;48.094;-1.628;2022-12-07T19:02:29;3.13;;;2.28;;
40737;SDS011;54759;48.094;-1.628;2022-12-07T19:05:30;2.22;;;2.03;;
40737;SDS011;54759;48.094;-1.628;2022-12-07T19:08:31;2.63;;;2.42;;
40737;SDS011;54759;48.094;-1.628;2022-12-07T19:11:34;3.65;;;2.90;;
40737;SDS011;54759;48.094;-1.628;2022-12-07T19:14:48;4.10;;;3.22;;
40737;SDS011;54759;48.094;-1.628;2022-12-07T19:20:52;3.65;;;2.97;;
40737;SDS011;54759;48.094;-1.628;2022-12-07T19:23:53;4.05;;;3.35;;
40737;SDS011;54759;48.094;-1.628;2022-12-07T19:26:55;4.30;;;3.72;;
40737;SDS011;54759;48.094;-1.628;2022-12-07T19:29:57;3.38;;;2.97;;
40737;SDS011;54759;48.094;-1.628;2022-12-07T19:32:59;3.65;;;3.15;;
40737;SDS011;54759;48.094;-1.628;2022-12-07T19:36:00;3.50;;;3.20;;
40737;SDS011;54759;48.094;-1.628;2022-12-07T19:39:02;3.75;;;3.17;;
40737;SDS011;54759;48.094;-1.628;2022-12-07T19:42:09;4.72;;;3.60;;
40737;SDS011;54759;48.094;-1.628;2022-12-07T19:45:10;3.90;;;3.45;;
40737;SDS011;54759;48.094;-1.628;2022-12-07T19:48:12;4.65;;;3.45;;
40737;SDS011;54759;48.094;-1.628;2022-12-07T19:51:14;4.20;;;3.80;;
40737;SDS011;54759;48.094;-1.628;2022-12-07T19:54:16;3.72;;;3.42;;
40737;SDS011;54759;48.094;-1.628;2022-12-07T19:57:19;3.95;;;3.55;;
40737;SDS011;54759;48.094;-1.628;2022-12-07T20:00:21;4.45;;;3.80;;
40737;SDS011;54759;48.094;-1.628;2022-12-07T20:03:23;3.97;;;3.58;;
40737;SDS011;54759;48.094;-1.628;2022-12-07T20:06:27;4.22;;;3.40;;
40737;SDS011;54759;48.094;-1.628;2022-12-07T20:09:28;3.60;;;3.30;;
40737;SDS011;54759;48.094;-1.628;2022-12-07T20:12:29;4.50;;;3.85;;
40737;SDS011;54759;48.094;-1.628;2022-12-07T20:15:46;4.15;;;3.75;;
40737;SDS011;54759;48.094;-1.628;2022-12-07T20:21:57;4.00;;;3.60;;
40737;SDS011;54759;48.094;-1.628;2022-12-07T20:24:59;3.30;;;3.00;;
40737;SDS011;54759;48.094;-1.628;2022-12-07T20:28:00;3.90;;;3.50;;
40737;SDS011;54759;48.094;-1.628;2022-12-07T20:31:02;4.45;;;4.00;;
40737;SDS011;54759;48.094;-1.628;2022-12-07T20:34:05;4.00;;;3.53;;
40737;SDS011;54759;48.094;-1.628;2022-12-07T20:37:07;5.00;;;4.32;;
40737;SDS011;54759;48.094;-1.628;2022-12-07T20:40:08;4.78;;;4.28;;
40737;SDS011;54759;48.094;-1.628;2022-12-07T20:43:10;4.75;;;3.95;;
40737;SDS011;54759;48.094;-1.628;2022-12-07T20:46:12;4.65;;;4.18;;
40737;SDS011;54759;48.094;-1.628;2022-12-07T20:52:16;4.68;;;3.95;;
40737;SDS011;54759;48.094;-1.628;2022-12-07T20:55:20;5.00;;;4.50;;
40737;SDS011;54759;48.094;-1.628;2022-12-07T20:58:21;4.18;;;3.78;;
40737;SDS011;54759;48.094;-1.628;2022-12-07T21:01:29;4.85;;;4.35;;
40737;SDS011;54759;48.094;-1.628;2022-12-07T21:04:31;4.47;;;4.03;;
40737;SDS011;54759;48.094;-1.628;2022-12-07T21:07:32;4.82;;;4.20;;
40737;SDS011;54759;48.094;-1.628;2022-12-07T21:13:35;4.68;;;3.65;;
40737;SDS011;54759;48.094;-1.628;2022-12-07T21:16:37;4.32;;;3.92;;
40737;SDS011;54759;48.094;-1.628;2022-12-07T21:19:39;5.07;;;4.32;;
40737;SDS011;54759;48.094;-1.628;2022-12-07T21:22:41;4.85;;;4.35;;
40737;SDS011;54759;48.094;-1.628;2022-12-07T21:25:42;5.10;;;4.43;;
40737;SDS011;54759;48.094;-1.628;2022-12-07T21:28:44;4.63;;;4.10;;